TAF KGYY
AMD KGYY 280854Z 2809/2906 28010KT P6SM FEW025 FM281400 31016G27KT P6SM SCT025 FM282200 31010G15KT P6SM SKC FM290100 30007KT P6SM FEW250=
METAR KGYY
WC KGYY
WS KGYY
WV KGYY